createdAt,value
2022-08-25T00:00:20.733Z,18.58
2022-08-25T00:02:55.264Z,18.54
2022-08-25T00:05:32.557Z,18.63
2022-08-25T00:08:06.105Z,18.62
2022-08-25T00:10:36.222Z,18.58
2022-08-25T00:13:05.530Z,18.44
2022-08-25T00:15:34.169Z,18.48
2022-08-25T00:18:03.246Z,18.49
2022-08-25T00:20:32.330Z,18.33
2022-08-25T00:23:00.579Z,18.38
2022-08-25T00:25:30.138Z,18.38
2022-08-25T00:27:59.001Z,18.38
2022-08-25T00:30:27.226Z,18.43
2022-08-25T00:32:57.352Z,18.39
2022-08-25T00:35:27.762Z,18.22
2022-08-25T00:37:56.132Z,18.40
2022-08-25T00:40:27.240Z,18.14
2022-08-25T00:42:57.032Z,18.07
2022-08-25T00:45:25.807Z,18.12
2022-08-25T00:47:54.206Z,18.04
2022-08-25T00:50:26.570Z,18.19
2022-08-25T00:52:59.008Z,18.10
2022-08-25T00:55:30.399Z,18.18
2022-08-25T00:58:07.603Z,18.12
2022-08-25T01:00:40.368Z,18.01
2022-08-25T01:03:08.967Z,17.95
2022-08-25T01:05:38.611Z,17.98
2022-08-25T01:08:09.455Z,18.17
2022-08-25T01:10:41.642Z,17.96
2022-08-25T01:13:17.978Z,18.10
2022-08-25T01:15:47.218Z,18.13
2022-08-25T01:18:16.070Z,18.07
2022-08-25T01:20:46.732Z,18.03
2022-08-25T01:23:16.307Z,17.78
2022-08-25T01:25:51.545Z,18.03
2022-08-25T01:28:21.802Z,18.02
2022-08-25T01:30:50.493Z,18.06
2022-08-25T01:33:19.279Z,17.99
2022-08-25T01:35:48.423Z,18.06
2022-08-25T01:38:18.532Z,18.03
2022-08-25T01:40:46.728Z,17.98
2022-08-25T01:43:27.779Z,17.86
2022-08-25T01:45:55.979Z,17.97
2022-08-25T01:48:24.216Z,17.92
2022-08-25T01:50:52.418Z,17.89
2022-08-25T01:53:25.090Z,18.00
2022-08-25T01:55:55.361Z,17.94
2022-08-25T01:58:25.954Z,17.80
2022-08-25T02:00:57.228Z,17.90
2022-08-25T02:03:26.891Z,17.88
2022-08-25T02:05:58.667Z,17.66
2022-08-25T02:08:28.266Z,17.69
2022-08-25T02:10:56.613Z,17.74
2022-08-25T02:13:27.002Z,17.80
2022-08-25T02:16:02.249Z,17.84
2022-08-25T02:18:31.010Z,17.64
2022-08-25T02:20:59.214Z,17.56
2022-08-25T02:23:29.213Z,17.55
2022-08-25T02:25:58.211Z,17.78
2022-08-25T02:28:27.135Z,17.79
2022-08-25T02:31:01.240Z,17.72
2022-08-25T02:33:30.147Z,17.55
2022-08-25T02:35:59.563Z,17.48
2022-08-25T02:38:30.341Z,17.55
2022-08-25T02:41:00.594Z,17.61
2022-08-25T02:43:29.871Z,17.67
2022-08-25T02:45:59.331Z,17.69
2022-08-25T02:48:27.598Z,17.71
2022-08-25T02:50:55.778Z,17.54
2022-08-25T02:53:23.995Z,17.61
2022-08-25T02:55:53.537Z,17.48
2022-08-25T02:58:22.270Z,17.66
2022-08-25T03:00:50.831Z,17.66
2022-08-25T03:03:19.603Z,17.51
2022-08-25T03:05:48.806Z,17.50
2022-08-25T03:08:17.642Z,17.54
2022-08-25T03:10:45.963Z,17.62
2022-08-25T03:13:17.974Z,17.51
2022-08-25T03:15:46.335Z,17.53
2022-08-25T03:18:17.621Z,17.67
2022-08-25T03:20:46.531Z,17.62
2022-08-25T03:23:15.156Z,17.60
2022-08-25T03:26:01.185Z,17.53
2022-08-25T03:28:33.158Z,17.45
2022-08-25T03:31:01.894Z,17.55
2022-08-25T03:33:31.147Z,17.54
2022-08-25T03:36:00.098Z,17.38
2022-08-25T03:38:28.761Z,17.63
2022-08-25T03:40:56.939Z,17.68
2022-08-25T03:43:25.105Z,17.50
2022-08-25T03:45:54.702Z,17.46
2022-08-25T03:48:22.977Z,17.41
2022-08-25T03:50:54.746Z,17.53
2022-08-25T03:53:23.129Z,17.46
2022-08-25T03:55:51.602Z,17.39
2022-08-25T03:58:19.776Z,17.48
2022-08-25T04:00:48.046Z,17.42
2022-08-25T04:03:18.883Z,17.48
2022-08-25T04:05:47.392Z,17.38
2022-08-25T04:08:15.806Z,17.57
2022-08-25T04:10:48.340Z,17.58
2022-08-25T04:13:16.626Z,17.47
2022-08-25T04:15:45.068Z,17.56
2022-08-25T04:18:13.572Z,17.44
2022-08-25T04:20:46.783Z,17.36
2022-08-25T04:23:15.226Z,17.49
2022-08-25T04:25:43.750Z,17.51
2022-08-25T04:28:14.366Z,17.53
2022-08-25T04:30:44.168Z,17.55
2022-08-25T04:33:13.091Z,17.67
2022-08-25T04:35:41.456Z,17.73
2022-08-25T04:38:10.956Z,17.70
2022-08-25T04:40:39.164Z,17.58
2022-08-25T04:43:07.603Z,17.57
2022-08-25T04:45:38.551Z,17.78
2022-08-25T04:48:07.808Z,17.62
2022-08-25T04:50:39.517Z,17.69
2022-08-25T04:53:07.735Z,17.67
2022-08-25T04:55:42.689Z,17.98
2022-08-25T04:58:12.040Z,17.76
2022-08-25T05:00:46.622Z,17.70
2022-08-25T05:03:15.296Z,17.97
2022-08-25T05:05:43.487Z,18.16
2022-08-25T05:08:11.694Z,17.90
2022-08-25T05:10:43.184Z,17.85
2022-08-25T05:13:12.299Z,18.19
2022-08-25T05:15:52.678Z,17.92
2022-08-25T05:18:22.739Z,18.07
2022-08-25T05:20:53.704Z,17.98
2022-08-25T05:23:23.050Z,18.13
2022-08-25T05:25:53.822Z,18.09
2022-08-25T05:28:22.544Z,18.04
2022-08-25T05:30:50.765Z,18.18
2022-08-25T05:33:20.211Z,18.30
2022-08-25T05:35:48.381Z,18.25
2022-08-25T05:38:19.683Z,18.13
2022-08-25T05:40:47.865Z,18.08
2022-08-25T05:43:17.354Z,18.41
2022-08-25T05:45:46.565Z,18.45
2022-08-25T05:48:15.609Z,18.41
2022-08-25T05:50:51.510Z,18.24
2022-08-25T05:53:19.848Z,18.28
2022-08-25T05:55:48.288Z,18.48
2022-08-25T05:58:18.524Z,18.63
2022-08-25T06:00:47.213Z,18.41
2022-08-25T06:03:14.644Z,18.26
2022-08-25T06:05:42.890Z,18.38
2022-08-25T06:08:11.118Z,18.46
2022-08-25T06:10:39.446Z,18.58
2022-08-25T06:13:07.689Z,18.48
2022-08-25T06:15:37.293Z,18.38
2022-08-25T06:18:05.972Z,18.34
2022-08-25T06:20:34.307Z,18.37
2022-08-25T06:23:02.559Z,18.46
2022-08-25T06:25:33.521Z,18.45
2022-08-25T06:28:01.678Z,18.57
2022-08-25T06:30:30.250Z,18.54
2022-08-25T06:33:00.016Z,18.56
2022-08-25T06:35:28.360Z,18.66
2022-08-25T06:37:56.687Z,18.53
2022-08-25T06:40:26.064Z,18.59
2022-08-25T06:42:54.379Z,18.76
2022-08-25T06:45:22.543Z,18.58
2022-08-25T06:47:50.883Z,18.57
2022-08-25T06:50:20.679Z,18.77
2022-08-25T06:52:48.888Z,18.81
2022-08-25T06:55:17.059Z,18.72
2022-08-25T06:57:45.290Z,18.89
2022-08-25T07:00:14.082Z,18.92
2022-08-25T07:02:42.525Z,18.85
2022-08-25T07:05:17.159Z,18.81
2022-08-25T07:07:52.027Z,18.74
2022-08-25T07:10:21.032Z,18.66
2022-08-25T07:12:49.205Z,18.84
2022-08-25T07:15:20.508Z,18.82
2022-08-25T07:17:50.774Z,19.35
2022-08-25T07:20:19.764Z,19.14
2022-08-25T07:22:49.275Z,19.17
2022-08-25T07:25:18.874Z,19.38
2022-08-25T07:27:47.069Z,19.57
2022-08-25T07:30:17.206Z,19.54
2022-08-25T07:32:45.486Z,19.51
2022-08-25T07:35:15.522Z,19.55
2022-08-25T07:37:49.658Z,19.42
2022-08-25T07:40:22.421Z,19.66
2022-08-25T07:42:52.399Z,19.62
2022-08-25T07:45:25.409Z,19.61
2022-08-25T07:47:53.878Z,19.50
2022-08-25T07:50:22.394Z,19.51
2022-08-25T07:52:59.079Z,19.55
2022-08-25T07:55:30.467Z,19.89
2022-08-25T07:58:00.539Z,19.82
2022-08-25T08:00:32.496Z,19.82
2022-08-25T08:03:03.696Z,20.02
2022-08-25T08:05:32.728Z,20.02
2022-08-25T08:08:02.425Z,20.07
2022-08-25T08:11:00.649Z,20.23
2022-08-25T08:13:21.012Z,20.20
2022-08-25T08:15:49.358Z,20.57
2022-08-25T08:18:18.409Z,20.47
2022-08-25T08:20:48.079Z,20.37
2022-08-25T08:23:17.103Z,20.53
2022-08-25T08:25:46.843Z,20.79
2022-08-25T08:28:15.302Z,21.12
2022-08-25T08:30:53.442Z,20.82
2022-08-25T08:33:24.947Z,21.21
2022-08-25T08:35:59.233Z,21.04
2022-08-25T08:38:27.833Z,21.12
2022-08-25T08:41:25.484Z,21.11
2022-08-25T08:44:03.254Z,21.47
2022-08-25T08:46:48.012Z,21.45
2022-08-25T08:49:27.658Z,21.10
2022-08-25T08:52:00.516Z,21.37
2022-08-25T08:54:34.059Z,21.58
2022-08-25T08:57:10.977Z,21.50
2022-08-25T08:59:49.108Z,21.89
2022-08-25T09:02:50.015Z,22.00
2022-08-25T09:05:19.247Z,22.12
2022-08-25T09:07:54.573Z,22.17
2022-08-25T09:10:25.263Z,21.95
2022-08-25T09:13:12.014Z,22.14
2022-08-25T09:16:06.841Z,22.26
2022-08-25T09:18:51.040Z,22.26
2022-08-25T09:21:28.184Z,22.43
2022-08-25T09:24:14.010Z,22.55
2022-08-25T09:26:53.303Z,22.98
2022-08-25T09:29:26.241Z,23.03
2022-08-25T09:31:59.498Z,23.40
2022-08-25T09:34:33.349Z,23.44
2022-08-25T09:37:02.204Z,23.39
2022-08-25T09:39:30.403Z,23.66
2022-08-25T09:42:00.888Z,23.48
2022-08-25T09:44:33.708Z,23.77
2022-08-25T09:47:04.876Z,23.72
2022-08-25T09:49:42.884Z,23.56
2022-08-25T09:52:26.335Z,23.82
2022-08-25T09:54:56.191Z,24.06
2022-08-25T09:57:35.924Z,24.14
2022-08-25T10:00:14.474Z,23.98
2022-08-25T10:02:44.039Z,24.04
2022-08-25T10:05:23.364Z,23.65
2022-08-25T10:07:55.839Z,24.00
2022-08-25T10:10:32.244Z,24.83
2022-08-25T10:13:03.443Z,25.24
2022-08-25T10:15:38.737Z,25.46
2022-08-25T10:18:26.577Z,25.10
2022-08-25T10:21:08.157Z,25.05
2022-08-25T10:23:38.606Z,24.47
2022-08-25T10:26:14.374Z,24.22
2022-08-25T10:28:52.403Z,23.99
2022-08-25T10:31:27.083Z,24.26
2022-08-25T10:34:08.340Z,24.14
2022-08-25T10:36:49.963Z,24.21
2022-08-25T10:39:34.283Z,24.65
2022-08-25T10:42:26.003Z,24.95
2022-08-25T10:45:28.083Z,24.61
2022-08-25T10:48:22.247Z,25.47
2022-08-25T10:50:57.292Z,26.00
2022-08-25T10:53:30.396Z,26.40
2022-08-25T10:56:08.687Z,26.00
2022-08-25T10:58:53.311Z,25.36
2022-08-25T11:01:43.566Z,25.21
2022-08-25T11:04:19.867Z,25.60
2022-08-25T11:06:54.585Z,25.57
2022-08-25T11:09:26.646Z,25.41
2022-08-25T11:11:58.595Z,25.60
2022-08-25T11:14:34.528Z,25.90
2022-08-25T11:17:07.204Z,25.74
2022-08-25T11:19:41.570Z,26.57
2022-08-25T11:22:19.323Z,26.52
2022-08-25T11:24:59.434Z,26.29
2022-08-25T11:27:34.033Z,25.73
2022-08-25T11:30:07.300Z,25.71
2022-08-25T11:32:37.090Z,25.38
2022-08-25T11:35:09.763Z,25.73
2022-08-25T11:37:48.578Z,25.60
2022-08-25T11:40:39.130Z,25.05
2022-08-25T11:43:24.650Z,25.10
2022-08-25T11:46:08.450Z,24.94
2022-08-25T11:48:42.586Z,25.20
2022-08-25T11:51:30.929Z,26.21
2022-08-25T11:54:16.951Z,25.82
2022-08-25T11:56:53.631Z,25.99
2022-08-25T11:59:55.824Z,25.73
2022-08-25T12:02:40.921Z,26.32
2022-08-25T12:05:33.186Z,26.44
2022-08-25T12:08:24.180Z,26.75
2022-08-25T12:10:59.514Z,26.31
2022-08-25T12:13:41.835Z,26.12
2022-08-25T12:16:39.976Z,25.60
2022-08-25T12:19:29.895Z,25.41
2022-08-25T12:22:19.859Z,25.77
2022-08-25T12:24:56.306Z,26.20
2022-08-25T12:27:34.047Z,26.43
2022-08-25T12:30:06.631Z,26.33
2022-08-25T12:32:56.360Z,26.83
2022-08-25T12:35:32.183Z,26.74
2022-08-25T12:38:07.086Z,26.28
2022-08-25T12:40:39.857Z,26.29
2022-08-25T12:43:12.919Z,26.60
2022-08-25T12:45:44.926Z,26.56
2022-08-25T12:49:02.521Z,26.78
2022-08-25T12:51:53.369Z,26.56
2022-08-25T12:54:30.773Z,26.51
2022-08-25T12:57:03.083Z,26.69
2022-08-25T12:59:37.218Z,26.74
2022-08-25T13:02:30.779Z,26.85
2022-08-25T13:05:09.850Z,26.40
2022-08-25T13:07:59.796Z,26.57
2022-08-25T13:10:43.393Z,26.45
2022-08-25T13:13:24.691Z,26.58
2022-08-25T13:16:00.945Z,26.68
2022-08-25T13:18:31.255Z,26.98
2022-08-25T13:21:09.395Z,27.00
2022-08-25T13:23:42.034Z,26.95
2022-08-25T13:26:15.328Z,27.07
2022-08-25T13:28:50.334Z,26.77
2022-08-25T13:31:22.117Z,26.45
2022-08-25T13:33:54.817Z,26.16
2022-08-25T13:36:47.023Z,26.27
2022-08-25T13:39:45.679Z,26.65
2022-08-25T13:42:17.492Z,27.04
2022-08-25T13:44:52.359Z,27.09
2022-08-25T13:47:43.858Z,27.20
2022-08-25T13:50:29.467Z,27.38
2022-08-25T13:52:59.922Z,26.90
2022-08-25T13:55:38.264Z,26.74
2022-08-25T13:58:24.389Z,26.36
2022-08-25T14:01:22.264Z,26.09
2022-08-25T14:04:18.194Z,26.15
2022-08-25T14:06:47.245Z,26.09
2022-08-25T14:09:18.207Z,26.65
2022-08-25T14:11:56.524Z,27.08
2022-08-25T14:14:34.894Z,27.25
2022-08-25T14:17:21.914Z,27.40
2022-08-25T14:19:56.395Z,27.38
2022-08-25T14:22:24.939Z,26.93
2022-08-25T14:24:54.495Z,26.53
2022-08-25T14:27:22.862Z,26.25
2022-08-25T14:29:52.918Z,26.11
2022-08-25T14:32:22.750Z,25.92
2022-08-25T14:34:50.942Z,25.91
2022-08-25T14:37:25.322Z,26.32
2022-08-25T14:39:54.710Z,26.67
2022-08-25T14:42:25.422Z,26.70
2022-08-25T14:44:54.566Z,26.44
2022-08-25T14:47:25.951Z,26.74
2022-08-25T14:49:54.230Z,26.75
2022-08-25T14:52:28.801Z,26.90
2022-08-25T14:54:58.168Z,26.99
2022-08-25T14:57:27.423Z,26.84
2022-08-25T14:59:55.624Z,27.03
2022-08-25T15:02:29.491Z,27.25
2022-08-25T15:05:02.540Z,26.78
2022-08-25T15:07:51.216Z,26.60
2022-08-25T15:10:19.831Z,26.56
2022-08-25T15:12:53.981Z,26.74
2022-08-25T15:15:26.372Z,27.11
2022-08-25T15:17:55.330Z,27.07
2022-08-25T15:20:29.262Z,27.06
2022-08-25T15:22:57.528Z,27.22
2022-08-25T15:25:27.045Z,27.33
2022-08-25T15:27:56.004Z,27.11
2022-08-25T15:30:31.195Z,27.76
2022-08-25T15:32:59.595Z,28.53
2022-08-25T15:35:29.846Z,29.43
2022-08-25T15:37:58.106Z,29.31
2022-08-25T15:40:27.338Z,29.15
2022-08-25T15:42:55.975Z,29.40
2022-08-25T15:45:24.485Z,29.18
2022-08-25T15:47:54.125Z,28.84
2022-08-25T15:50:26.029Z,30.01
2022-08-25T15:52:55.964Z,29.64
2022-08-25T15:55:24.830Z,29.67
2022-08-25T15:57:53.396Z,30.26
2022-08-25T16:00:22.705Z,29.65
2022-08-25T16:02:51.526Z,29.15
2022-08-25T16:05:25.731Z,29.43
2022-08-25T16:07:54.390Z,28.18
2022-08-25T16:10:23.914Z,28.01
2022-08-25T16:12:53.505Z,27.36
2022-08-25T16:15:24.123Z,27.05
2022-08-25T16:17:58.811Z,27.60
2022-08-25T16:20:27.268Z,28.13
2022-08-25T16:22:55.570Z,28.80
2022-08-25T16:25:25.371Z,28.19
2022-08-25T16:27:54.117Z,28.69
2022-08-25T16:30:22.839Z,28.60
2022-08-25T16:32:51.737Z,28.85
2022-08-25T16:35:20.115Z,28.38
2022-08-25T16:37:50.194Z,27.97
2022-08-25T16:40:22.664Z,27.84
2022-08-25T16:42:53.402Z,27.73
2022-08-25T16:45:22.108Z,27.33
2022-08-25T16:47:50.392Z,26.51
2022-08-25T16:50:18.928Z,26.12
2022-08-25T16:53:07.955Z,26.05
2022-08-25T16:55:39.503Z,25.83
2022-08-25T16:58:13.373Z,25.72
2022-08-25T17:00:44.008Z,25.80
2022-08-25T17:03:13.645Z,25.49
2022-08-25T17:05:43.860Z,25.45
2022-08-25T17:08:31.098Z,25.51
2022-08-25T17:11:08.170Z,25.32
2022-08-25T17:13:39.554Z,25.49
2022-08-25T17:16:14.593Z,25.17
2022-08-25T17:18:43.751Z,25.10
2022-08-25T17:21:23.934Z,25.09
2022-08-25T17:23:53.596Z,25.03
2022-08-25T17:26:27.527Z,24.94
2022-08-25T17:28:59.340Z,24.95
2022-08-25T17:31:28.749Z,25.07
2022-08-25T17:33:58.413Z,24.93
2022-08-25T17:36:27.512Z,24.94
2022-08-25T17:38:56.841Z,24.80
2022-08-25T17:41:25.906Z,24.63
2022-08-25T17:43:54.098Z,24.73
2022-08-25T17:46:24.031Z,24.80
2022-08-25T17:48:52.972Z,24.42
2022-08-25T17:51:21.394Z,24.44
2022-08-25T17:53:50.559Z,24.40
2022-08-25T17:56:20.749Z,24.21
2022-08-25T17:58:49.877Z,24.02
2022-08-25T18:01:20.313Z,23.94
2022-08-25T18:03:52.189Z,23.74
2022-08-25T18:06:22.108Z,23.58
2022-08-25T18:08:52.199Z,23.36
2022-08-25T18:11:24.524Z,23.19
2022-08-25T18:13:53.760Z,22.96
2022-08-25T18:16:23.211Z,22.90
2022-08-25T18:18:54.640Z,22.88
2022-08-25T18:21:24.612Z,23.01
2022-08-25T18:23:53.285Z,22.92
2022-08-25T18:26:21.976Z,22.76
2022-08-25T18:28:53.741Z,22.48
2022-08-25T18:31:22.197Z,22.44
2022-08-25T18:33:52.313Z,22.40
2022-08-25T18:36:21.368Z,22.20
2022-08-25T18:39:06.626Z,22.18
2022-08-25T18:41:37.495Z,22.15
2022-08-25T18:44:06.616Z,22.04
2022-08-25T18:46:34.953Z,22.11
2022-08-25T18:49:05.427Z,22.10
2022-08-25T18:51:34.072Z,21.98
2022-08-25T18:54:02.399Z,21.97
2022-08-25T18:56:30.898Z,21.96
2022-08-25T18:58:59.384Z,21.96
2022-08-25T19:01:28.562Z,21.91
2022-08-25T19:03:57.129Z,21.94
2022-08-25T19:06:27.185Z,21.91
2022-08-25T19:08:55.361Z,21.95
2022-08-25T19:11:23.538Z,21.69
2022-08-25T19:13:52.496Z,21.60
2022-08-25T19:16:34.416Z,21.63
2022-08-25T19:19:04.432Z,21.67
2022-08-25T19:21:36.266Z,21.72
2022-08-25T19:24:05.215Z,21.75
2022-08-25T19:26:35.295Z,21.49
2022-08-25T19:29:06.379Z,21.28
2022-08-25T19:31:39.399Z,21.29
2022-08-25T19:34:09.268Z,21.44
2022-08-25T19:36:39.659Z,21.39
2022-08-25T19:39:10.780Z,21.37
2022-08-25T19:41:39.057Z,21.32
2022-08-25T19:44:08.839Z,21.32
2022-08-25T19:46:39.906Z,21.27
2022-08-25T19:51:44.091Z,21.36
2022-08-25T19:54:14.284Z,21.33
2022-08-25T19:56:43.508Z,21.20
2022-08-25T19:59:22.914Z,21.18
2022-08-25T20:01:51.157Z,21.18
2022-08-25T20:04:19.853Z,21.19
2022-08-25T20:06:50.003Z,20.83
2022-08-25T20:09:20.735Z,20.78
2022-08-25T20:12:06.316Z,20.84
2022-08-25T20:14:35.159Z,20.89
2022-08-25T20:17:03.798Z,20.93
2022-08-25T20:19:52.319Z,20.89
2022-08-25T20:22:25.976Z,20.73
2022-08-25T20:24:57.830Z,20.75
2022-08-25T20:27:30.206Z,20.73
2022-08-25T20:29:59.999Z,20.84
2022-08-25T20:32:32.876Z,20.74
2022-08-25T20:35:01.879Z,20.66
2022-08-25T20:37:31.974Z,20.70
2022-08-25T20:40:03.212Z,20.68
2022-08-25T20:42:31.550Z,20.66
2022-08-25T20:45:00.144Z,20.63
2022-08-25T20:47:29.894Z,20.46
2022-08-25T20:50:00.378Z,20.56
2022-08-25T20:52:32.832Z,20.47
2022-08-25T20:55:03.186Z,20.50
2022-08-25T20:57:31.731Z,20.48
2022-08-25T21:00:00.840Z,20.36
2022-08-25T21:02:30.545Z,20.32
2022-08-25T21:04:58.783Z,20.51
2022-08-25T21:07:27.158Z,20.37
2022-08-25T21:09:57.812Z,20.38
2022-08-25T21:12:26.119Z,20.27
2022-08-25T21:14:55.120Z,20.30
2022-08-25T21:17:23.322Z,20.40
2022-08-25T21:19:51.961Z,20.32
2022-08-25T21:22:20.632Z,20.29
2022-08-25T21:24:49.103Z,20.25
2022-08-25T21:27:18.606Z,20.21
2022-08-25T21:29:54.550Z,20.04
2022-08-25T21:32:24.856Z,19.89
2022-08-25T21:34:54.381Z,19.99
2022-08-25T21:37:22.998Z,19.97
2022-08-25T21:39:51.660Z,20.02
2022-08-25T21:42:22.363Z,20.06
2022-08-25T21:44:51.209Z,20.17
2022-08-25T21:47:21.622Z,19.98
2022-08-25T21:49:51.739Z,20.14
2022-08-25T21:52:20.808Z,20.15
2022-08-25T21:54:49.022Z,20.01
2022-08-25T21:57:23.769Z,19.83
2022-08-25T21:59:53.487Z,19.80
2022-08-25T22:02:23.902Z,19.94
2022-08-25T22:04:53.396Z,19.99
2022-08-25T22:07:24.614Z,20.07
2022-08-25T22:09:54.981Z,20.02
2022-08-25T22:12:23.442Z,20.10
2022-08-25T22:14:54.462Z,19.95
2022-08-25T22:17:24.653Z,19.86
2022-08-25T22:19:54.080Z,19.90
2022-08-25T22:22:23.076Z,19.87
2022-08-25T22:24:52.967Z,19.88
2022-08-25T22:27:23.591Z,19.78
2022-08-25T22:29:53.895Z,19.89
2022-08-25T22:32:22.075Z,19.93
2022-08-25T22:34:50.290Z,19.86
2022-08-25T22:37:19.110Z,19.88
2022-08-25T22:39:47.484Z,19.89
2022-08-25T22:42:16.614Z,19.94
2022-08-25T22:44:45.142Z,19.86
2022-08-25T22:47:14.818Z,19.87
2022-08-25T22:49:43.373Z,19.82
2022-08-25T22:52:13.071Z,19.72
2022-08-25T22:54:42.428Z,19.65
2022-08-25T22:57:11.613Z,19.78
2022-08-25T22:59:40.546Z,19.64
2022-08-25T23:02:08.887Z,19.61
2022-08-25T23:04:41.246Z,19.55
2022-08-25T23:07:12.620Z,19.53
2022-08-25T23:09:41.014Z,19.41
2022-08-25T23:12:09.815Z,19.40
2022-08-25T23:14:42.310Z,19.50
2022-08-25T23:17:12.385Z,19.50
2022-08-25T23:19:42.094Z,19.61
2022-08-25T23:22:09.453Z,19.66
2022-08-25T23:24:42.752Z,19.66
2022-08-25T23:27:14.066Z,19.52
2022-08-25T23:29:47.245Z,19.58
2022-08-25T23:32:17.260Z,19.43
2022-08-25T23:34:48.026Z,19.39
2022-08-25T23:37:18.723Z,19.37
2022-08-25T23:39:49.968Z,19.10
2022-08-25T23:42:20.097Z,19.09
2022-08-25T23:44:49.226Z,19.13
2022-08-25T23:47:18.632Z,19.17
2022-08-25T23:49:49.119Z,19.22
2022-08-25T23:52:18.339Z,19.39
2022-08-25T23:54:47.002Z,19.45
2022-08-25T23:57:15.533Z,19.45
2022-08-25T23:59:43.718Z,19.47
